createdAt,value
2022-08-08T00:00:53.525Z,42.90
2022-08-08T00:03:28.283Z,43.08
2022-08-08T00:06:03.731Z,43.02
2022-08-08T00:08:48.936Z,43.21
2022-08-08T00:11:46.615Z,44.52
2022-08-08T00:14:57.409Z,44.22
2022-08-08T00:18:01.678Z,44.77
2022-08-08T00:20:36.135Z,44.21
2022-08-08T00:23:08.189Z,43.90
2022-08-08T00:25:46.481Z,44.09
2022-08-08T00:28:38.002Z,43.67
2022-08-08T00:32:21.135Z,45.21
2022-08-08T00:34:39.319Z,44.87
2022-08-08T00:37:47.256Z,44.95
2022-08-08T00:41:09.292Z,45.52
2022-08-08T00:43:56.328Z,45.67
2022-08-08T00:46:57.769Z,45.85
2022-08-08T00:49:58.477Z,46.04
2022-08-08T00:52:43.513Z,46.74
2022-08-08T00:55:54.772Z,46.81
2022-08-08T00:58:36.897Z,46.95
2022-08-08T01:01:37.684Z,46.88
2022-08-08T01:05:06.224Z,47.02
2022-08-08T01:07:56.559Z,47.05
2022-08-08T01:10:52.495Z,47.23
2022-08-08T01:13:58.494Z,46.77
2022-08-08T01:16:55.216Z,47.06
2022-08-08T01:20:01.870Z,47.34
2022-08-08T01:22:37.356Z,47.42
2022-08-08T01:25:08.316Z,47.64
2022-08-08T01:28:14.971Z,47.28
2022-08-08T01:32:05.645Z,47.04
2022-08-08T01:34:29.130Z,47.82
2022-08-08T01:37:56.439Z,47.85
2022-08-08T01:40:55.043Z,48.02
2022-08-08T01:43:50.597Z,48.16
2022-08-08T01:46:26.975Z,48.55
2022-08-08T01:49:22.770Z,48.82
2022-08-08T01:52:42.782Z,48.09
2022-08-08T01:56:29.807Z,47.94
2022-08-08T01:58:32.280Z,48.54
2022-08-08T02:01:30.273Z,48.84
2022-08-08T02:04:37.547Z,48.78
2022-08-08T02:07:41.484Z,49.21
2022-08-08T02:10:37.240Z,48.59
2022-08-08T02:13:53.160Z,48.34
2022-08-08T02:16:28.465Z,49.13
2022-08-08T02:19:10.116Z,49.16
2022-08-08T02:22:09.615Z,48.67
2022-08-08T02:24:51.807Z,49.01
2022-08-08T02:27:50.179Z,49.33
2022-08-08T02:30:27.308Z,49.89
2022-08-08T02:33:10.936Z,49.53
2022-08-08T02:36:03.302Z,50.13
2022-08-08T02:38:35.135Z,50.51
2022-08-08T02:42:03.870Z,50.44
2022-08-08T02:45:00.497Z,51.41
2022-08-08T02:47:54.779Z,51.03
2022-08-08T02:51:24.044Z,50.76
2022-08-08T02:54:13.785Z,51.29
2022-08-08T02:57:05.104Z,51.57
2022-08-08T03:00:31.495Z,51.07
2022-08-08T03:05:01.073Z,52.14
2022-08-08T03:06:24.168Z,52.03
2022-08-08T03:09:21.255Z,51.06
2022-08-08T03:12:02.396Z,51.84
2022-08-08T03:16:01.861Z,51.72
2022-08-08T03:18:04.929Z,51.50
2022-08-08T03:20:51.526Z,51.67
2022-08-08T03:23:23.368Z,51.62
2022-08-08T03:25:52.032Z,52.85
2022-08-08T03:28:38.557Z,52.22
2022-08-08T03:31:26.707Z,52.18
2022-08-08T03:34:01.323Z,53.40
2022-08-08T03:36:42.972Z,53.70
2022-08-08T03:39:15.991Z,53.37
2022-08-08T03:42:28.643Z,52.73
2022-08-08T03:44:39.009Z,52.33
2022-08-08T03:47:19.894Z,53.00
2022-08-08T03:50:00.867Z,52.95
2022-08-08T03:52:36.523Z,53.03
2022-08-08T03:55:20.261Z,52.61
2022-08-08T03:58:33.828Z,53.31
2022-08-08T04:01:23.221Z,53.87
2022-08-08T04:03:58.958Z,53.89
2022-08-08T04:06:32.079Z,54.11
2022-08-08T04:09:08.827Z,53.79
2022-08-08T04:11:48.483Z,53.86
2022-08-08T04:14:35.532Z,53.11
2022-08-08T04:17:06.768Z,53.76
2022-08-08T04:19:42.972Z,53.91
2022-08-08T04:22:10.200Z,53.17
2022-08-08T04:24:40.355Z,53.41
2022-08-08T04:27:42.980Z,53.64
2022-08-08T04:30:17.251Z,53.90
2022-08-08T04:32:46.649Z,54.27
2022-08-08T04:35:15.654Z,53.92
2022-08-08T04:37:44.790Z,54.10
2022-08-08T04:40:18.241Z,54.46
2022-08-08T04:42:56.700Z,54.28
2022-08-08T04:45:43.926Z,54.01
2022-08-08T04:48:15.002Z,55.38
2022-08-08T04:50:44.705Z,55.03
2022-08-08T04:54:27.683Z,54.70
2022-08-08T04:56:09.198Z,54.96
2022-08-08T04:58:38.281Z,55.86
2022-08-08T05:01:11.110Z,55.49
2022-08-08T05:04:10.408Z,55.54
2022-08-08T05:06:36.414Z,54.79
2022-08-08T05:09:07.181Z,55.35
2022-08-08T05:11:39.657Z,55.07
2022-08-08T05:14:12.350Z,55.55
2022-08-08T05:16:47.945Z,56.18
2022-08-08T05:20:11.851Z,56.49
2022-08-08T05:22:12.969Z,55.53
2022-08-08T05:24:48.151Z,55.13
2022-08-08T05:27:16.765Z,55.73
2022-08-08T05:29:45.108Z,55.19
2022-08-08T05:32:18.382Z,55.84
2022-08-08T05:34:47.591Z,55.24
2022-08-08T05:37:21.065Z,55.00
2022-08-08T05:39:53.394Z,55.97
2022-08-08T05:42:36.215Z,56.39
2022-08-08T05:45:24.354Z,56.00
2022-08-08T05:48:00.431Z,56.37
2022-08-08T05:50:33.466Z,55.74
2022-08-08T05:53:54.751Z,55.31
2022-08-08T05:56:09.616Z,55.83
2022-08-08T05:58:53.823Z,55.58
2022-08-08T06:01:52.605Z,56.61
2022-08-08T06:04:22.896Z,56.71
2022-08-08T06:06:53.442Z,56.42
2022-08-08T06:09:58.187Z,56.39
2022-08-08T06:12:18.758Z,56.81
2022-08-08T06:15:01.041Z,56.16
2022-08-08T06:17:51.229Z,55.93
2022-08-08T06:20:25.971Z,56.69
2022-08-08T06:22:56.342Z,56.57
2022-08-08T06:25:58.914Z,56.37
2022-08-08T06:28:28.980Z,55.99
2022-08-08T06:31:00.796Z,56.34
2022-08-08T06:34:25.460Z,56.29
2022-08-08T06:36:53.401Z,56.22
2022-08-08T06:39:22.757Z,54.91
2022-08-08T06:41:58.638Z,56.37
2022-08-08T06:44:42.532Z,55.88
2022-08-08T06:47:10.748Z,55.49
2022-08-08T06:49:55.158Z,54.82
2022-08-08T06:52:27.757Z,54.07
2022-08-08T06:54:58.629Z,53.25
2022-08-08T06:57:29.048Z,53.27
2022-08-08T07:00:10.495Z,53.55
2022-08-08T07:02:45.972Z,52.48
2022-08-08T07:05:20.829Z,52.09
2022-08-08T07:08:00.072Z,51.81
2022-08-08T07:10:45.986Z,51.84
2022-08-08T07:13:19.968Z,52.14
2022-08-08T07:16:06.283Z,52.30
2022-08-08T07:19:06.273Z,51.86
2022-08-08T07:22:18.502Z,51.51
2022-08-08T07:25:01.676Z,51.20
2022-08-08T07:28:00.552Z,50.47
2022-08-08T07:30:30.897Z,50.08
2022-08-08T07:32:59.399Z,49.82
2022-08-08T07:35:31.220Z,49.17
2022-08-08T07:38:10.651Z,48.66
2022-08-08T07:40:59.174Z,48.31
2022-08-08T07:43:36.809Z,47.73
2022-08-08T07:46:23.332Z,47.85
2022-08-08T07:48:52.517Z,47.93
2022-08-08T07:51:23.634Z,48.04
2022-08-08T07:54:33.003Z,48.46
2022-08-08T07:57:16.913Z,48.02
2022-08-08T08:00:05.262Z,46.84
2022-08-08T08:03:08.660Z,46.90
2022-08-08T08:05:45.185Z,46.23
2022-08-08T08:08:25.566Z,45.74
2022-08-08T08:10:58.189Z,45.44
2022-08-08T08:14:08.226Z,45.26
2022-08-08T08:16:41.070Z,45.02
2022-08-08T08:19:10.743Z,44.31
2022-08-08T08:21:52.839Z,44.40
2022-08-08T08:24:35.325Z,44.30
2022-08-08T08:27:04.424Z,44.17
2022-08-08T08:29:36.194Z,43.95
2022-08-08T08:32:05.590Z,43.45
2022-08-08T08:34:37.285Z,42.84
2022-08-08T08:37:11.585Z,43.19
2022-08-08T08:40:02.089Z,43.04
2022-08-08T08:42:35.691Z,43.13
2022-08-08T08:45:21.568Z,42.91
2022-08-08T08:47:58.486Z,42.51
2022-08-08T08:50:35.102Z,42.69
2022-08-08T08:53:54.890Z,43.09
2022-08-08T08:56:07.781Z,42.12
2022-08-08T08:58:43.358Z,42.13
2022-08-08T09:01:21.712Z,42.13
2022-08-08T09:03:54.857Z,41.93
2022-08-08T09:06:34.081Z,41.96
2022-08-08T09:09:26.607Z,42.02
2022-08-08T09:12:10.603Z,41.61
2022-08-08T09:14:45.077Z,41.63
2022-08-08T09:17:19.149Z,41.68
2022-08-08T09:21:59.699Z,41.42
2022-08-08T09:22:58.180Z,40.55
2022-08-08T09:25:47.502Z,40.44
2022-08-08T09:28:35.203Z,40.64
2022-08-08T09:31:12.881Z,40.38
2022-08-08T09:34:06.041Z,40.29
2022-08-08T09:36:36.029Z,39.86
2022-08-08T09:39:10.306Z,39.69
2022-08-08T09:42:21.332Z,39.23
2022-08-08T09:45:15.762Z,38.79
2022-08-08T09:48:04.091Z,38.91
2022-08-08T09:50:35.610Z,38.96
2022-08-08T09:53:23.772Z,38.47
2022-08-08T09:56:06.019Z,38.22
2022-08-08T09:58:41.602Z,38.17
2022-08-08T10:01:14.332Z,38.23
2022-08-08T10:03:56.133Z,38.28
2022-08-08T10:06:29.479Z,37.88
2022-08-08T10:08:57.493Z,37.37
2022-08-08T10:12:28.319Z,37.28
2022-08-08T10:14:28.595Z,37.52
2022-08-08T10:16:59.766Z,37.55
2022-08-08T10:19:57.182Z,37.28
2022-08-08T10:22:27.501Z,36.79
2022-08-08T10:25:01.845Z,36.71
2022-08-08T10:27:34.218Z,36.94
2022-08-08T10:30:05.025Z,36.43
2022-08-08T10:32:35.847Z,36.35
2022-08-08T10:35:20.358Z,36.00
2022-08-08T10:38:05.438Z,36.20
2022-08-08T10:40:33.185Z,36.22
2022-08-08T10:43:05.672Z,36.06
2022-08-08T10:45:56.356Z,36.48
2022-08-08T10:48:57.044Z,36.18
2022-08-08T10:51:31.064Z,35.98
2022-08-08T10:54:02.051Z,35.69
2022-08-08T10:56:35.465Z,35.40
2022-08-08T10:59:10.377Z,34.82
2022-08-08T11:01:46.148Z,34.42
2022-08-08T11:04:17.181Z,33.98
2022-08-08T11:07:00.690Z,34.28
2022-08-08T11:09:31.981Z,34.86
2022-08-08T11:12:13.140Z,34.54
2022-08-08T11:14:51.878Z,33.82
2022-08-08T11:18:01.118Z,33.71
2022-08-08T11:20:15.245Z,33.77
2022-08-08T11:22:50.954Z,33.85
2022-08-08T11:25:52.689Z,33.00
2022-08-08T11:28:23.481Z,32.69
2022-08-08T11:30:54.305Z,33.05
2022-08-08T11:33:52.703Z,32.88
2022-08-08T11:36:15.005Z,32.35
2022-08-08T11:38:54.340Z,32.19
2022-08-08T11:41:23.704Z,31.88
2022-08-08T11:43:54.131Z,31.46
2022-08-08T11:46:27.990Z,32.08
2022-08-08T11:48:58.033Z,31.94
2022-08-08T11:51:38.184Z,30.82
2022-08-08T11:54:26.949Z,30.25
2022-08-08T11:57:14.186Z,30.22
2022-08-08T12:00:05.315Z,30.59
2022-08-08T12:02:54.699Z,30.88
2022-08-08T12:05:36.869Z,30.76
2022-08-08T12:08:04.754Z,29.69
2022-08-08T12:10:32.543Z,29.93
2022-08-08T12:13:06.737Z,30.06
2022-08-08T12:15:42.515Z,29.79
2022-08-08T12:18:21.264Z,30.29
2022-08-08T12:20:50.760Z,29.70
2022-08-08T12:23:43.377Z,29.01
2022-08-08T12:26:28.341Z,28.58
2022-08-08T12:29:40.097Z,27.71
2022-08-08T12:32:19.558Z,28.00
2022-08-08T12:35:01.446Z,28.62
2022-08-08T12:37:41.223Z,28.39
2022-08-08T12:40:22.523Z,27.88
2022-08-08T12:42:50.535Z,27.65
2022-08-08T12:45:53.866Z,27.44
2022-08-08T12:48:37.284Z,27.26
2022-08-08T12:51:10.877Z,27.72
2022-08-08T12:53:58.719Z,28.30
2022-08-08T12:56:34.111Z,27.84
2022-08-08T12:59:01.670Z,27.13
2022-08-08T13:01:36.358Z,26.85
2022-08-08T13:04:24.400Z,26.51
2022-08-08T13:07:00.765Z,26.11
2022-08-08T13:10:04.638Z,26.21
2022-08-08T13:12:47.119Z,25.68
2022-08-08T13:15:17.082Z,26.49
2022-08-08T13:18:08.480Z,26.18
2022-08-08T13:20:34.411Z,26.51
2022-08-08T13:23:31.267Z,27.06
2022-08-08T13:25:51.113Z,26.74
2022-08-08T13:28:32.358Z,26.21
2022-08-08T13:31:04.596Z,26.14
2022-08-08T13:33:42.077Z,26.25
2022-08-08T13:36:11.078Z,26.75
2022-08-08T13:38:39.779Z,26.61
2022-08-08T13:41:07.511Z,26.05
2022-08-08T13:43:46.681Z,25.74
2022-08-08T13:46:26.960Z,25.52
2022-08-08T13:50:33.244Z,26.52
2022-08-08T13:52:04.435Z,27.68
2022-08-08T13:54:35.174Z,27.68
2022-08-08T13:57:17.123Z,27.10
2022-08-08T13:59:48.318Z,27.02
2022-08-08T14:02:20.837Z,26.99
2022-08-08T14:04:57.266Z,27.36
2022-08-08T14:07:32.874Z,27.38
2022-08-08T14:10:05.850Z,27.34
2022-08-08T14:12:43.838Z,27.08
2022-08-08T14:15:46.052Z,27.04
2022-08-08T14:18:36.068Z,26.17
2022-08-08T14:21:15.341Z,27.17
2022-08-08T14:24:04.795Z,27.24
2022-08-08T14:26:46.264Z,27.00
2022-08-08T14:29:29.858Z,26.18
2022-08-08T14:32:12.798Z,26.65
2022-08-08T14:34:45.215Z,25.83
2022-08-08T14:37:17.057Z,26.05
2022-08-08T14:39:53.717Z,25.68
2022-08-08T14:42:32.619Z,25.60
2022-08-08T14:45:02.785Z,25.49
2022-08-08T14:47:36.084Z,24.70
2022-08-08T14:50:21.295Z,25.13
2022-08-08T14:52:54.456Z,25.43
2022-08-08T14:55:35.329Z,25.70
2022-08-08T14:58:12.162Z,25.61
2022-08-08T15:00:45.165Z,25.67
2022-08-08T15:03:15.071Z,25.86
2022-08-08T15:05:54.735Z,25.57
2022-08-08T15:08:34.392Z,25.46
2022-08-08T15:11:11.577Z,25.17
2022-08-08T15:14:00.856Z,25.27
2022-08-08T15:16:34.504Z,24.53
2022-08-08T15:19:03.512Z,24.61
2022-08-08T15:21:30.824Z,24.82
2022-08-08T15:23:58.906Z,24.51
2022-08-08T15:26:28.682Z,24.69
2022-08-08T15:28:57.525Z,24.12
2022-08-08T15:31:54.014Z,24.50
2022-08-08T15:34:29.016Z,24.44
2022-08-08T15:36:59.711Z,23.68
2022-08-08T15:39:37.718Z,23.54
2022-08-08T15:42:10.578Z,24.29
2022-08-08T15:44:46.077Z,24.90
2022-08-08T15:47:15.933Z,25.20
2022-08-08T15:49:48.667Z,24.85
2022-08-08T15:52:20.697Z,24.67
2022-08-08T15:54:51.681Z,24.54
2022-08-08T15:57:21.105Z,24.83
2022-08-08T16:00:06.360Z,24.36
2022-08-08T16:02:50.310Z,24.70
2022-08-08T16:05:23.779Z,24.24
2022-08-08T16:07:53.799Z,24.50
2022-08-08T16:13:05.466Z,24.08
2022-08-08T16:13:30.651Z,24.09
2022-08-08T16:16:09.266Z,24.31
2022-08-08T16:18:56.853Z,24.47
2022-08-08T16:21:32.101Z,24.51
2022-08-08T16:24:04.088Z,24.78
2022-08-08T16:26:35.883Z,24.69
2022-08-08T16:29:07.737Z,25.27
2022-08-08T16:31:40.465Z,25.50
2022-08-08T16:34:09.808Z,25.30
2022-08-08T16:36:38.842Z,25.22
2022-08-08T16:39:27.928Z,25.71
2022-08-08T16:42:01.487Z,25.48
2022-08-08T16:44:33.624Z,25.17
2022-08-08T16:47:21.928Z,25.30
2022-08-08T16:50:12.668Z,25.86
2022-08-08T16:55:23.696Z,25.55
2022-08-08T16:55:52.884Z,25.54
2022-08-08T16:58:25.646Z,25.79
2022-08-08T17:00:57.824Z,26.17
2022-08-08T17:03:58.032Z,26.44
2022-08-08T17:06:17.686Z,26.06
2022-08-08T17:09:02.416Z,26.06
2022-08-08T17:11:47.984Z,26.19
2022-08-08T17:14:17.988Z,26.26
2022-08-08T17:16:57.408Z,26.71
2022-08-08T17:19:27.504Z,26.15
2022-08-08T17:21:57.262Z,26.15
2022-08-08T17:24:27.692Z,26.67
2022-08-08T17:26:57.947Z,26.72
2022-08-08T17:29:33.779Z,26.40
2022-08-08T17:32:02.706Z,26.65
2022-08-08T17:34:49.204Z,26.46
2022-08-08T17:37:19.163Z,26.68
2022-08-08T17:40:05.624Z,26.61
2022-08-08T17:42:34.921Z,26.91
2022-08-08T17:45:02.337Z,26.77
2022-08-08T17:47:37.465Z,27.36
2022-08-08T17:50:06.213Z,27.00
2022-08-08T17:52:35.295Z,27.07
2022-08-08T17:55:05.598Z,27.41
2022-08-08T17:57:37.607Z,28.03
2022-08-08T18:00:13.421Z,28.00
2022-08-08T18:02:58.137Z,27.83
2022-08-08T18:05:44.255Z,28.19
2022-08-08T18:08:24.434Z,28.18
2022-08-08T18:11:08.404Z,28.19
2022-08-08T18:13:41.483Z,28.60
2022-08-08T18:16:10.126Z,29.02
2022-08-08T18:18:42.709Z,29.55
2022-08-08T18:21:34.635Z,29.58
2022-08-08T18:24:01.686Z,29.31
2022-08-08T18:26:29.494Z,29.47
2022-08-08T18:28:57.657Z,29.87
2022-08-08T18:31:27.728Z,29.82
2022-08-08T18:34:11.401Z,30.37
2022-08-08T18:36:51.798Z,30.23
2022-08-08T18:39:28.292Z,30.48
2022-08-08T18:42:02.896Z,30.53
2022-08-08T18:44:32.772Z,30.61
2022-08-08T18:47:02.432Z,30.82
2022-08-08T18:49:41.107Z,30.76
2022-08-08T18:52:22.778Z,31.22
2022-08-08T18:54:59.386Z,31.20
2022-08-08T18:57:36.830Z,30.94
2022-08-08T19:00:14.099Z,30.91
2022-08-08T19:02:48.539Z,31.06
2022-08-08T19:05:32.039Z,31.19
2022-08-08T19:08:24.471Z,31.76
2022-08-08T19:10:54.112Z,31.73
2022-08-08T19:13:24.539Z,31.64
2022-08-08T19:15:55.882Z,32.24
2022-08-08T19:18:32.521Z,31.96
2022-08-08T19:21:28.984Z,32.00
2022-08-08T19:23:58.938Z,31.89
2022-08-08T19:26:29.014Z,31.68
2022-08-08T19:28:59.587Z,31.89
2022-08-08T19:31:31.715Z,31.77
2022-08-08T19:34:35.883Z,31.56
2022-08-08T19:36:58.597Z,31.94
2022-08-08T19:39:34.763Z,32.05
2022-08-08T19:42:06.886Z,32.08
2022-08-08T19:44:45.802Z,32.69
2022-08-08T19:47:16.229Z,32.21
2022-08-08T19:49:59.632Z,32.61
2022-08-08T19:52:35.354Z,32.57
2022-08-08T19:55:11.245Z,32.85
2022-08-08T19:57:47.379Z,32.53
2022-08-08T20:00:29.894Z,32.66
2022-08-08T20:03:14.267Z,32.83
2022-08-08T20:06:13.474Z,32.61
2022-08-08T20:08:32.053Z,32.79
2022-08-08T20:11:00.583Z,32.99
2022-08-08T20:14:32.759Z,33.09
2022-08-08T20:16:17.590Z,33.07
2022-08-08T20:18:52.860Z,33.41
2022-08-08T20:21:25.698Z,33.10
2022-08-08T20:23:57.901Z,33.26
2022-08-08T20:26:31.873Z,33.33
2022-08-08T20:29:01.809Z,33.33
2022-08-08T20:32:02.829Z,33.39
2022-08-08T20:34:29.869Z,33.42
2022-08-08T20:37:03.275Z,33.61
2022-08-08T20:39:39.137Z,34.04
2022-08-08T20:42:20.465Z,34.21
2022-08-08T20:44:56.915Z,34.58
2022-08-08T20:47:25.356Z,34.53
2022-08-08T20:49:54.453Z,35.33
2022-08-08T20:52:27.894Z,35.43
2022-08-08T20:54:57.026Z,36.89
2022-08-08T20:57:26.929Z,37.33
2022-08-08T20:59:56.179Z,37.22
2022-08-08T21:02:27.374Z,37.54
2022-08-08T21:05:00.595Z,38.19
2022-08-08T21:07:47.134Z,38.63
2022-08-08T21:10:21.006Z,39.34
2022-08-08T21:12:53.056Z,39.72
2022-08-08T21:16:03.894Z,40.09
2022-08-08T21:18:12.106Z,40.52
2022-08-08T21:20:41.946Z,40.95
2022-08-08T21:23:10.030Z,41.50
2022-08-08T21:25:40.690Z,41.73
2022-08-08T21:28:14.473Z,41.97
2022-08-08T21:30:45.362Z,42.32
2022-08-08T21:33:21.285Z,42.36
2022-08-08T21:36:16.379Z,42.83
2022-08-08T21:38:36.050Z,42.68
2022-08-08T21:41:03.325Z,42.89
2022-08-08T21:43:33.951Z,42.74
2022-08-08T21:48:03.644Z,42.68
2022-08-08T21:48:53.024Z,42.67
2022-08-08T21:54:16.773Z,43.60
2022-08-08T21:54:31.444Z,43.29
2022-08-08T21:56:59.379Z,43.69
2022-08-08T22:00:01.312Z,44.46
2022-08-08T22:02:22.823Z,44.66
2022-08-08T22:04:55.936Z,44.42
2022-08-08T22:07:39.607Z,44.63
2022-08-08T22:10:09.601Z,44.00
2022-08-08T22:12:38.874Z,44.26
2022-08-08T22:15:07.450Z,44.46
2022-08-08T22:17:41.462Z,44.30
2022-08-08T22:20:23.767Z,44.30
2022-08-08T22:22:55.544Z,44.86
2022-08-08T22:25:25.259Z,44.92
2022-08-08T22:28:02.983Z,44.57
2022-08-08T22:30:33.763Z,44.38
2022-08-08T22:33:02.325Z,44.59
2022-08-08T22:36:04.145Z,45.53
2022-08-08T22:38:23.775Z,45.85
2022-08-08T22:40:51.095Z,45.68
2022-08-08T22:43:18.895Z,45.79
2022-08-08T22:45:52.882Z,45.60
2022-08-08T22:48:21.713Z,45.64
2022-08-08T22:50:49.831Z,45.44
2022-08-08T22:54:31.900Z,45.91
2022-08-08T22:56:05.760Z,45.86
2022-08-08T22:58:34.482Z,45.93
2022-08-08T23:01:16.573Z,45.89
2022-08-08T23:03:56.233Z,46.28
2022-08-08T23:06:25.154Z,46.19
2022-08-08T23:08:55.128Z,46.17
2022-08-08T23:12:17.445Z,46.25
2022-08-08T23:14:18.619Z,46.84
2022-08-08T23:16:57.474Z,46.58
2022-08-08T23:19:27.864Z,46.51
2022-08-08T23:22:04.206Z,46.79
2022-08-08T23:24:41.731Z,46.88
2022-08-08T23:27:11.078Z,47.01
2022-08-08T23:29:54.991Z,46.69
2022-08-08T23:32:23.528Z,46.67
2022-08-08T23:34:58.747Z,46.48
2022-08-08T23:37:54.243Z,47.57
2022-08-08T23:40:15.760Z,47.76
2022-08-08T23:42:45.141Z,47.13
2022-08-08T23:45:12.811Z,46.86
2022-08-08T23:49:04.617Z,47.48
2022-08-08T23:50:30.200Z,48.06
2022-08-08T23:53:03.513Z,48.42
2022-08-08T23:55:33.674Z,48.87
2022-08-08T23:58:09.846Z,48.63
